Main page
METAR-TAF:

METAR-TAF

Airports :

Zvartnots International Airport

Yerevan, Armenia

latitude: 40-08-50N, longitude: 044-23-45E, elevation: 865 m

Current weather observation

The report was made 38 minutes ago, at 18:00 UTC
Wind 2 kt from the North
Temperature -1°C
Humidity 40%
Pressure 1026 hPa
Visibility: 6000 m

METAR: UDYZ 281800Z 36002KT 6000 NSC M01/M13 Q1026 NOSIG

Time: 22:38 (18:38 UTC)

Forecast

The report was made 1 hour and 38 minutes ago, at 17:00 UTC
Forecast valid from 28 at 18 UTC to 29 at 18 UTC
Wind 4 kt from variable directions
Visibility: 6000 m
Few clouds at a height of 4000 ft

TAF: UDYZ 281700Z 2818/2918 VRB04KT 6000 FEW040

Weather observations and forecasts of more than 4000 airports (METAR and TAF reports).

The available stations are represented by yellow and red dots on the map.

Hover mouse over dot to see the name of the station.

Then click to see weather observations and forecasts.

To change the map : click on the green buttons with a black cross to zoom in, on the green button with a dash to zoom out, or on the green arrows for adjacent maps.


METAR-TAF: